sensor_id;sensor_type;location;lat;lon;timestamp;pressure;altitude;pressure_sealevel;temperature;humidity
12178;BME280;6152;48.728;9.256;2023-11-18T00:01:18;97885.03;;;3.85;100.00
12178;BME280;6152;48.728;9.256;2023-11-18T00:03:44;97899.47;;;3.92;100.00
12178;BME280;6152;48.728;9.256;2023-11-18T00:06:10;97896.94;;;3.89;100.00
12178;BME280;6152;48.728;9.256;2023-11-18T00:08:36;97895.19;;;3.91;100.00
12178;BME280;6152;48.728;9.256;2023-11-18T00:11:02;97904.59;;;3.92;100.00
12178;BME280;6152;48.728;9.256;2023-11-18T00:13:28;97896.03;;;3.91;100.00
12178;BME280;6152;48.728;9.256;2023-11-18T00:15:55;97897.72;;;3.92;100.00
12178;BME280;6152;48.728;9.256;2023-11-18T00:18:21;97894.25;;;3.95;100.00
12178;BME280;6152;48.728;9.256;2023-11-18T00:20:47;97891.59;;;3.98;100.00
12178;BME280;6152;48.728;9.256;2023-11-18T00:23:13;97899.28;;;3.99;100.00
12178;BME280;6152;48.728;9.256;2023-11-18T00:25:39;97896.66;;;4.01;100.00
12178;BME280;6152;48.728;9.256;2023-11-18T00:28:06;97883.63;;;4.08;100.00
12178;BME280;6152;48.728;9.256;2023-11-18T00:30:35;97892.13;;;4.12;100.00
12178;BME280;6152;48.728;9.256;2023-11-18T00:33:01;97888.63;;;4.15;100.00
12178;BME280;6152;48.728;9.256;2023-11-18T00:35:27;97891.13;;;4.19;100.00
12178;BME280;6152;48.728;9.256;2023-11-18T00:37:53;97890.09;;;4.26;100.00
12178;BME280;6152;48.728;9.256;2023-11-18T00:40:19;97887.44;;;4.29;100.00
12178;BME280;6152;48.728;9.256;2023-11-18T00:42:45;97896.81;;;4.32;100.00
12178;BME280;6152;48.728;9.256;2023-11-18T00:45:12;97891.66;;;4.32;100.00
12178;BME280;6152;48.728;9.256;2023-11-18T00:47:41;97895.97;;;4.31;100.00
12178;BME280;6152;48.728;9.256;2023-11-18T00:50:07;97895.16;;;4.29;100.00
12178;BME280;6152;48.728;9.256;2023-11-18T00:52:34;97888.38;;;4.27;100.00
12178;BME280;6152;48.728;9.256;2023-11-18T00:55:00;97889.22;;;4.27;100.00
12178;BME280;6152;48.728;9.256;2023-11-18T00:57:27;97884.06;;;4.27;100.00
12178;BME280;6152;48.728;9.256;2023-11-18T00:59:53;97889.22;;;4.27;100.00
12178;BME280;6152;48.728;9.256;2023-11-18T01:02:19;97890.88;;;4.28;100.00
12178;BME280;6152;48.728;9.256;2023-11-18T01:04:45;97900.31;;;4.29;100.00
12178;BME280;6152;48.728;9.256;2023-11-18T01:07:12;97894.31;;;4.29;100.00
12178;BME280;6152;48.728;9.256;2023-11-18T01:09:38;97894.38;;;4.27;100.00
12178;BME280;6152;48.728;9.256;2023-11-18T01:12:05;97894.41;;;4.24;100.00
12178;BME280;6152;48.728;9.256;2023-11-18T01:14:36;97891.84;;;4.24;100.00
12178;BME280;6152;48.728;9.256;2023-11-18T01:17:04;97887.53;;;4.26;100.00
12178;BME280;6152;48.728;9.256;2023-11-18T01:19:31;97891.03;;;4.22;100.00
12178;BME280;6152;48.728;9.256;2023-11-18T01:21:57;97893.63;;;4.22;100.00
12178;BME280;6152;48.728;9.256;2023-11-18T01:24:23;97893.59;;;4.24;100.00
12178;BME280;6152;48.728;9.256;2023-11-18T01:26:49;97894.38;;;4.27;100.00
12178;BME280;6152;48.728;9.256;2023-11-18T01:29:16;97897.81;;;4.26;100.00
12178;BME280;6152;48.728;9.256;2023-11-18T01:31:42;97901.28;;;4.25;100.00
12178;BME280;6152;48.728;9.256;2023-11-18T01:34:08;97908.19;;;4.23;100.00
12178;BME280;6152;48.728;9.256;2023-11-18T01:36:34;97911.63;;;4.24;100.00
12178;BME280;6152;48.728;9.256;2023-11-18T01:39:00;97906.50;;;4.22;100.00
12178;BME280;6152;48.728;9.256;2023-11-18T01:41:26;97915.16;;;4.18;100.00
12178;BME280;6152;48.728;9.256;2023-11-18T01:43:53;97916.88;;;4.19;100.00
12178;BME280;6152;48.728;9.256;2023-11-18T01:46:19;97919.47;;;4.18;100.00
12178;BME280;6152;48.728;9.256;2023-11-18T01:48:46;97926.31;;;4.19;100.00
12178;BME280;6152;48.728;9.256;2023-11-18T01:51:12;97921.25;;;4.16;100.00
12178;BME280;6152;48.728;9.256;2023-11-18T01:53:41;97916.13;;;4.14;100.00
12178;BME280;6152;48.728;9.256;2023-11-18T01:56:08;97919.53;;;4.16;100.00
12178;BME280;6152;48.728;9.256;2023-11-18T01:58:35;97919.53;;;4.15;100.00
12178;BME280;6152;48.728;9.256;2023-11-18T02:01:02;97919.53;;;4.16;100.00
12178;BME280;6152;48.728;9.256;2023-11-18T02:03:29;97918.66;;;4.17;100.00
12178;BME280;6152;48.728;9.256;2023-11-18T02:05:56;97915.16;;;4.18;100.00
12178;BME280;6152;48.728;9.256;2023-11-18T02:08:23;97913.53;;;4.14;100.00
12178;BME280;6152;48.728;9.256;2023-11-18T02:10:57;97919.53;;;4.16;100.00
12178;BME280;6152;48.728;9.256;2023-11-18T02:13:32;97914.47;;;4.12;100.00
12178;BME280;6152;48.728;9.256;2023-11-18T02:16:00;97911.00;;;4.13;100.00
12178;BME280;6152;48.728;9.256;2023-11-18T02:18:30;97911.94;;;4.10;100.00
12178;BME280;6152;48.728;9.256;2023-11-18T02:20:57;97915.38;;;4.09;100.00
12178;BME280;6152;48.728;9.256;2023-11-18T02:23:25;97920.53;;;4.09;100.00
12178;BME280;6152;48.728;9.256;2023-11-18T02:25:55;97916.25;;;4.08;100.00
12178;BME280;6152;48.728;9.256;2023-11-18T02:28:24;97921.47;;;4.06;100.00
12178;BME280;6152;48.728;9.256;2023-11-18T02:30:56;97915.47;;;4.06;100.00
12178;BME280;6152;48.728;9.256;2023-11-18T02:33:31;97909.47;;;4.04;100.00
12178;BME280;6152;48.728;9.256;2023-11-18T02:36:41;97908.69;;;4.02;100.00
12178;BME280;6152;48.728;9.256;2023-11-18T02:39:08;97916.31;;;4.05;100.00
12178;BME280;6152;48.728;9.256;2023-11-18T02:41:39;97912.06;;;4.04;100.00
12178;BME280;6152;48.728;9.256;2023-11-18T02:44:07;97912.88;;;4.06;100.00
12178;BME280;6152;48.728;9.256;2023-11-18T02:46:36;97915.38;;;4.09;100.00
12178;BME280;6152;48.728;9.256;2023-11-18T02:49:04;97910.16;;;4.12;100.00
12178;BME280;6152;48.728;9.256;2023-11-18T02:51:30;97910.97;;;4.14;100.00
12178;BME280;6152;48.728;9.256;2023-11-18T02:54:05;97910.09;;;4.15;100.00
12178;BME280;6152;48.728;9.256;2023-11-18T02:56:32;97906.56;;;4.19;100.00
12178;BME280;6152;48.728;9.256;2023-11-18T02:58:58;97895.34;;;4.22;100.00
12178;BME280;6152;48.728;9.256;2023-11-18T03:01:26;97896.19;;;4.22;100.00
12178;BME280;6152;48.728;9.256;2023-11-18T03:03:53;97903.84;;;4.25;100.00
12178;BME280;6152;48.728;9.256;2023-11-18T03:06:20;97893.53;;;4.27;100.00
12178;BME280;6152;48.728;9.256;2023-11-18T03:08:46;97893.53;;;4.27;100.00
12178;BME280;6152;48.728;9.256;2023-11-18T03:11:13;97891.03;;;4.22;100.00
12178;BME280;6152;48.728;9.256;2023-11-18T03:13:39;97892.91;;;4.17;100.00
12178;BME280;6152;48.728;9.256;2023-11-18T03:16:09;97889.50;;;4.15;100.00
12178;BME280;6152;48.728;9.256;2023-11-18T03:18:42;97893.94;;;4.07;100.00
12178;BME280;6152;48.728;9.256;2023-11-18T03:21:12;97906.97;;;4.01;100.00
12178;BME280;6152;48.728;9.256;2023-11-18T03:23:39;97905.41;;;3.94;100.00
12178;BME280;6152;48.728;9.256;2023-11-18T03:26:09;97899.59;;;3.86;100.00
12178;BME280;6152;48.728;9.256;2023-11-18T03:28:36;97906.56;;;3.81;100.00
12178;BME280;6152;48.728;9.256;2023-11-18T03:31:06;97899.84;;;3.74;100.00
12178;BME280;6152;48.728;9.256;2023-11-18T03:33:32;97899.91;;;3.71;100.00
12178;BME280;6152;48.728;9.256;2023-11-18T03:35:59;97897.47;;;3.65;100.00
12178;BME280;6152;48.728;9.256;2023-11-18T03:38:25;97892.41;;;3.60;100.00
12178;BME280;6152;48.728;9.256;2023-11-18T03:40:53;97893.41;;;3.54;100.00
12178;BME280;6152;48.728;9.256;2023-11-18T03:43:19;97904.63;;;3.50;100.00
12178;BME280;6152;48.728;9.256;2023-11-18T03:45:46;97902.97;;;3.46;100.00
12178;BME280;6152;48.728;9.256;2023-11-18T03:48:12;97908.19;;;3.43;100.00
12178;BME280;6152;48.728;9.256;2023-11-18T03:50:41;97917.56;;;3.46;100.00
12178;BME280;6152;48.728;9.256;2023-11-18T03:53:07;97914.06;;;3.48;100.00
12178;BME280;6152;48.728;9.256;2023-11-18T03:55:33;97916.56;;;3.54;100.00
12178;BME280;6152;48.728;9.256;2023-11-18T03:57:59;97916.41;;;3.61;100.00
12178;BME280;6152;48.728;9.256;2023-11-18T04:00:26;97906.94;;;3.63;100.00
12178;BME280;6152;48.728;9.256;2023-11-18T04:02:56;97909.44;;;3.66;100.00
12178;BME280;6152;48.728;9.256;2023-11-18T04:05:25;97915.38;;;3.69;100.00
12178;BME280;6152;48.728;9.256;2023-11-18T04:07:51;97915.38;;;3.69;100.00
12178;BME280;6152;48.728;9.256;2023-11-18T04:10:17;97914.56;;;3.69;100.00
12178;BME280;6152;48.728;9.256;2023-11-18T04:12:45;97909.41;;;3.69;100.00
12178;BME280;6152;48.728;9.256;2023-11-18T04:15:14;97912.00;;;3.67;100.00
12178;BME280;6152;48.728;9.256;2023-11-18T04:17:41;97909.44;;;3.66;100.00
12178;BME280;6152;48.728;9.256;2023-11-18T04:20:09;97910.34;;;3.65;100.00
12178;BME280;6152;48.728;9.256;2023-11-18T04:22:43;97911.22;;;3.64;100.00
12178;BME280;6152;48.728;9.256;2023-11-18T04:25:10;97914.59;;;3.66;100.00
12178;BME280;6152;48.728;9.256;2023-11-18T04:27:37;97915.38;;;3.69;100.00
12178;BME280;6152;48.728;9.256;2023-11-18T04:30:04;97910.22;;;3.69;100.00
12178;BME280;6152;48.728;9.256;2023-11-18T04:32:31;97909.41;;;3.69;100.00
12178;BME280;6152;48.728;9.256;2023-11-18T04:34:59;97917.06;;;3.70;100.00
12178;BME280;6152;48.728;9.256;2023-11-18T04:37:25;97919.69;;;3.69;100.00
12178;BME280;6152;48.728;9.256;2023-11-18T04:39:52;97913.66;;;3.70;100.00
12178;BME280;6152;48.728;9.256;2023-11-18T04:42:19;97905.13;;;3.66;100.00
12178;BME280;6152;48.728;9.256;2023-11-18T04:44:45;97912.00;;;3.67;100.00
12178;BME280;6152;48.728;9.256;2023-11-18T04:47:12;97915.56;;;3.62;100.00
12178;BME280;6152;48.728;9.256;2023-11-18T04:49:38;97896.78;;;3.56;100.00
12178;BME280;6152;48.728;9.256;2023-11-18T04:52:04;97901.19;;;3.51;100.00
12178;BME280;6152;48.728;9.256;2023-11-18T04:54:30;97909.84;;;3.47;100.00
12178;BME280;6152;48.728;9.256;2023-11-18T04:56:56;97903.91;;;3.42;100.00
12178;BME280;6152;48.728;9.256;2023-11-18T04:59:23;97909.09;;;3.41;100.00
12178;BME280;6152;48.728;9.256;2023-11-18T05:01:49;97915.13;;;3.38;100.00
12178;BME280;6152;48.728;9.256;2023-11-18T05:04:19;97904.97;;;3.32;100.00
12178;BME280;6152;48.728;9.256;2023-11-18T05:06:45;97907.63;;;3.28;100.00
12178;BME280;6152;48.728;9.256;2023-11-18T05:09:11;97903.44;;;3.22;100.00
12178;BME280;6152;48.728;9.256;2023-11-18T05:11:37;97903.50;;;3.19;100.00
12178;BME280;6152;48.728;9.256;2023-11-18T05:14:04;97903.44;;;3.22;100.00
12178;BME280;6152;48.728;9.256;2023-11-18T05:16:31;97898.31;;;3.22;100.00
12178;BME280;6152;48.728;9.256;2023-11-18T05:18:57;97900.00;;;3.23;100.00
12178;BME280;6152;48.728;9.256;2023-11-18T05:21:23;97911.97;;;3.24;100.00
12178;BME280;6152;48.728;9.256;2023-11-18T05:23:49;97905.09;;;3.25;100.00
12178;BME280;6152;48.728;9.256;2023-11-18T05:26:15;97912.88;;;3.23;100.00
12178;BME280;6152;48.728;9.256;2023-11-18T05:28:41;97906.88;;;3.21;100.00
12178;BME280;6152;48.728;9.256;2023-11-18T05:31:10;97909.50;;;3.20;100.00
12178;BME280;6152;48.728;9.256;2023-11-18T05:33:37;97905.28;;;3.17;100.00
12178;BME280;6152;48.728;9.256;2023-11-18T05:36:04;97903.56;;;3.16;100.00
12178;BME280;6152;48.728;9.256;2023-11-18T05:38:33;97898.50;;;3.13;100.00
12178;BME280;6152;48.728;9.256;2023-11-18T05:41:01;97891.66;;;3.12;100.00
12178;BME280;6152;48.728;9.256;2023-11-18T05:43:32;97889.06;;;3.12;100.00
12178;BME280;6152;48.728;9.256;2023-11-18T05:46:07;97891.66;;;3.12;100.00
12178;BME280;6152;48.728;9.256;2023-11-18T05:49:02;97896.78;;;3.12;100.00
12178;BME280;6152;48.728;9.256;2023-11-18T05:51:33;97901.13;;;3.10;100.00
12178;BME280;6152;48.728;9.256;2023-11-18T05:53:59;97890.84;;;3.09;100.00
12178;BME280;6152;48.728;9.256;2023-11-18T05:56:25;97884.84;;;3.10;100.00
12178;BME280;6152;48.728;9.256;2023-11-18T05:58:52;97884.00;;;3.08;100.00
12178;BME280;6152;48.728;9.256;2023-11-18T06:01:21;97888.34;;;3.04;100.00
12178;BME280;6152;48.728;9.256;2023-11-18T06:03:47;97884.97;;;3.02;100.00
12178;BME280;6152;48.728;9.256;2023-11-18T06:06:15;97883.34;;;2.98;100.00
12178;BME280;6152;48.728;9.256;2023-11-18T06:08:42;97879.97;;;2.96;100.00
12178;BME280;6152;48.728;9.256;2023-11-18T06:11:13;97879.97;;;2.96;100.00
12178;BME280;6152;48.728;9.256;2023-11-18T06:13:51;97881.69;;;2.94;100.00
12178;BME280;6152;48.728;9.256;2023-11-18T06:16:20;97884.38;;;2.89;100.00
12178;BME280;6152;48.728;9.256;2023-11-18T06:18:47;97887.00;;;2.85;100.00
12178;BME280;6152;48.728;9.256;2023-11-18T06:21:15;97866.50;;;2.82;100.00
12178;BME280;6152;48.728;9.256;2023-11-18T06:23:43;97879.44;;;2.77;100.00
12178;BME280;6152;48.728;9.256;2023-11-18T06:26:11;97871.78;;;2.73;100.00
12178;BME280;6152;48.728;9.256;2023-11-18T06:28:41;97863.31;;;2.68;100.00
12178;BME280;6152;48.728;9.256;2023-11-18T06:31:07;97870.19;;;2.66;100.00
12178;BME280;6152;48.728;9.256;2023-11-18T06:33:43;97885.63;;;2.66;100.00
12178;BME280;6152;48.728;9.256;2023-11-18T06:38:48;97899.41;;;2.62;100.00
12178;BME280;6152;48.728;9.256;2023-11-18T06:41:22;97902.78;;;2.64;100.00
12178;BME280;6152;48.728;9.256;2023-11-18T06:43:59;97905.34;;;2.65;100.00
12178;BME280;6152;48.728;9.256;2023-11-18T06:46:32;97907.88;;;2.67;100.00
12178;BME280;6152;48.728;9.256;2023-11-18T06:49:01;97914.66;;;2.71;100.00
12178;BME280;6152;48.728;9.256;2023-11-18T06:51:34;97910.31;;;2.76;100.00
12178;BME280;6152;48.728;9.256;2023-11-18T06:54:01;97902.53;;;2.79;100.00
12178;BME280;6152;48.728;9.256;2023-11-18T06:56:42;97895.59;;;2.84;100.00
12178;BME280;6152;48.728;9.256;2023-11-18T06:59:09;97896.38;;;2.89;100.00
12178;BME280;6152;48.728;9.256;2023-11-18T07:01:38;97887.81;;;2.88;100.00
12178;BME280;6152;48.728;9.256;2023-11-18T07:04:06;97890.38;;;2.88;100.00
12178;BME280;6152;48.728;9.256;2023-11-18T07:06:36;97887.75;;;2.90;100.00
12178;BME280;6152;48.728;9.256;2023-11-18T07:09:09;97898.81;;;2.95;100.00
12178;BME280;6152;48.728;9.256;2023-11-18T07:11:40;97888.41;;;3.01;100.00
12178;BME280;6152;48.728;9.256;2023-11-18T07:14:07;97893.41;;;3.10;100.00
12178;BME280;6152;48.728;9.256;2023-11-18T07:16:35;97896.59;;;3.21;100.00
12178;BME280;6152;48.728;9.256;2023-11-18T07:19:01;97895.56;;;3.31;100.00
12178;BME280;6152;48.728;9.256;2023-11-18T07:21:29;97902.09;;;3.47;100.00
12178;BME280;6152;48.728;9.256;2023-11-18T07:23:56;97908.84;;;3.54;100.00
12178;BME280;6152;48.728;9.256;2023-11-18T07:26:22;97914.66;;;3.63;100.00
12178;BME280;6152;48.728;9.256;2023-11-18T07:28:50;97917.84;;;3.75;100.00
12178;BME280;6152;48.728;9.256;2023-11-18T07:31:18;97915.97;;;3.82;100.00
12178;BME280;6152;48.728;9.256;2023-11-18T07:33:45;97926.94;;;3.90;100.00
12178;BME280;6152;48.728;9.256;2023-11-18T07:36:15;97918.13;;;4.01;100.00
12178;BME280;6152;48.728;9.256;2023-11-18T07:38:42;97929.13;;;4.08;100.00
12178;BME280;6152;48.728;9.256;2023-11-18T07:41:08;97921.94;;;4.22;100.00
12178;BME280;6152;48.728;9.256;2023-11-18T07:43:35;97921.72;;;4.33;100.00
12178;BME280;6152;48.728;9.256;2023-11-18T07:46:03;97920.69;;;4.40;100.00
12178;BME280;6152;48.728;9.256;2023-11-18T07:48:29;97912.78;;;4.47;100.00
12178;BME280;6152;48.728;9.256;2023-11-18T07:50:59;97905.78;;;4.52;100.00
12178;BME280;6152;48.728;9.256;2023-11-18T07:53:25;97909.81;;;4.64;100.00
12178;BME280;6152;48.728;9.256;2023-11-18T07:55:55;97906.38;;;4.64;100.00
12178;BME280;6152;48.728;9.256;2023-11-18T07:58:21;97904.50;;;4.70;100.00
12178;BME280;6152;48.728;9.256;2023-11-18T08:00:49;97898.34;;;4.76;100.00
12178;BME280;6152;48.728;9.256;2023-11-18T08:03:16;97898.03;;;4.88;100.00
12178;BME280;6152;48.728;9.256;2023-11-18T08:05:43;97906.63;;;4.88;100.00
12178;BME280;6152;48.728;9.256;2023-11-18T08:08:10;97914.16;;;4.96;100.00
12178;BME280;6152;48.728;9.256;2023-11-18T08:10:38;97909.69;;;5.02;100.00
12178;BME280;6152;48.728;9.256;2023-11-18T08:13:08;97917.34;;;5.05;100.00
12178;BME280;6152;48.728;9.256;2023-11-18T08:15:37;97912.19;;;5.05;100.00
12178;BME280;6152;48.728;9.256;2023-11-18T08:18:03;97904.94;;;5.20;100.00
12178;BME280;6152;48.728;9.256;2023-11-18T08:20:30;97906.50;;;5.25;100.00
12178;BME280;6152;48.728;9.256;2023-11-18T08:22:56;97909.00;;;5.28;100.00
12178;BME280;6152;48.728;9.256;2023-11-18T08:25:22;97920.66;;;5.41;100.00
12178;BME280;6152;48.728;9.256;2023-11-18T08:27:49;97915.50;;;5.41;100.00
12178;BME280;6152;48.728;9.256;2023-11-18T08:30:15;97924.06;;;5.43;100.00
12178;BME280;6152;48.728;9.256;2023-11-18T08:32:45;97924.34;;;5.34;100.00
12178;BME280;6152;48.728;9.256;2023-11-18T08:35:12;97920.06;;;5.33;100.00
12178;BME280;6152;48.728;9.256;2023-11-18T08:37:45;97915.69;;;5.35;100.00
12178;BME280;6152;48.728;9.256;2023-11-18T08:40:12;97912.31;;;5.33;100.00
12178;BME280;6152;48.728;9.256;2023-11-18T08:42:44;97921.78;;;5.33;100.00
12178;BME280;6152;48.728;9.256;2023-11-18T08:45:23;97920.94;;;5.32;100.00
12178;BME280;6152;48.728;9.256;2023-11-18T08:48:03;97918.22;;;5.37;100.00
12178;BME280;6152;48.728;9.256;2023-11-18T08:50:34;97917.28;;;5.41;100.00
12178;BME280;6152;48.728;9.256;2023-11-18T08:53:01;97919.00;;;5.40;100.00
12178;BME280;6152;48.728;9.256;2023-11-18T08:55:32;97918.91;;;5.43;100.00
12178;BME280;6152;48.728;9.256;2023-11-18T08:58:17;97928.22;;;5.49;100.00
12178;BME280;6152;48.728;9.256;2023-11-18T09:00:49;97913.31;;;5.58;100.00
12178;BME280;6152;48.728;9.256;2023-11-18T09:03:24;97908.09;;;5.62;100.00
12178;BME280;6152;48.728;9.256;2023-11-18T09:05:52;97902.47;;;5.77;100.00
12178;BME280;6152;48.728;9.256;2023-11-18T09:08:31;97895.66;;;6.03;100.00
12178;BME280;6152;48.728;9.256;2023-11-18T09:11:08;97898.84;;;6.41;100.00
12178;BME280;6152;48.728;9.256;2023-11-18T09:13:36;97887.09;;;6.57;100.00
12178;BME280;6152;48.728;9.256;2023-11-18T09:16:05;97899.59;;;6.71;100.00
12178;BME280;6152;48.728;9.256;2023-11-18T09:18:41;97897.72;;;6.76;100.00
12178;BME280;6152;48.728;9.256;2023-11-18T09:21:09;97908.84;;;6.78;100.00
12178;BME280;6152;48.728;9.256;2023-11-18T09:23:41;97908.84;;;6.78;100.00
12178;BME280;6152;48.728;9.256;2023-11-18T09:26:07;97908.94;;;6.75;100.00
12178;BME280;6152;48.728;9.256;2023-11-18T09:28:35;97916.91;;;6.69;100.00
12178;BME280;6152;48.728;9.256;2023-11-18T09:31:01;97905.97;;;7.11;100.00
12178;BME280;6152;48.728;9.256;2023-11-18T09:33:32;97908.25;;;7.69;100.00
12178;BME280;6152;48.728;9.256;2023-11-18T09:36:03;97910.38;;;8.04;100.00
12178;BME280;6152;48.728;9.256;2023-11-18T09:38:31;97916.84;;;8.39;100.00
12178;BME280;6152;48.728;9.256;2023-11-18T09:40:58;97913.16;;;8.21;100.00
12178;BME280;6152;48.728;9.256;2023-11-18T09:43:38;97910.09;;;8.56;100.00
12178;BME280;6152;48.728;9.256;2023-11-18T09:46:19;97900.09;;;8.47;100.00
12178;BME280;6152;48.728;9.256;2023-11-18T09:48:51;97908.25;;;8.58;100.00
12178;BME280;6152;48.728;9.256;2023-11-18T09:51:27;97917.09;;;8.54;100.00
12178;BME280;6152;48.728;9.256;2023-11-18T09:53:58;97912.88;;;8.30;100.00
12178;BME280;6152;48.728;9.256;2023-11-18T10:02:24;97899.91;;;7.60;100.00
12178;BME280;6152;48.728;9.256;2023-11-18T10:04:50;97899.06;;;7.60;100.00
12178;BME280;6152;48.728;9.256;2023-11-18T10:07:25;97908.16;;;7.72;100.00
12178;BME280;6152;48.728;9.256;2023-11-18T10:09:56;97910.78;;;7.70;100.00
12178;BME280;6152;48.728;9.256;2023-11-18T10:12:24;97911.13;;;7.61;100.00
12178;BME280;6152;48.728;9.256;2023-11-18T10:14:50;97900.06;;;7.79;100.00
12178;BME280;6152;48.728;9.256;2023-11-18T10:17:18;97899.38;;;7.76;100.00
12178;BME280;6152;48.728;9.256;2023-11-18T10:19:58;97899.47;;;7.96;100.00
12178;BME280;6152;48.728;9.256;2023-11-18T10:22:38;97894.63;;;8.32;100.00
12178;BME280;6152;48.728;9.256;2023-11-18T10:25:06;97891.88;;;8.36;100.00
12178;BME280;6152;48.728;9.256;2023-11-18T10:27:33;97887.25;;;8.21;100.00
12178;BME280;6152;48.728;9.256;2023-11-18T10:30:06;97884.38;;;8.29;100.00
12178;BME280;6152;48.728;9.256;2023-11-18T10:33:00;97884.13;;;8.56;100.00
12178;BME280;6152;48.728;9.256;2023-11-18T10:35:35;97890.00;;;8.61;100.00
12178;BME280;6152;48.728;9.256;2023-11-18T10:38:03;97884.44;;;8.71;100.00
12178;BME280;6152;48.728;9.256;2023-11-18T10:40:33;97885.72;;;8.60;100.00
12178;BME280;6152;48.728;9.256;2023-11-18T10:43:06;97891.50;;;8.45;100.00
12178;BME280;6152;48.728;9.256;2023-11-18T10:45:36;97895.25;;;8.60;100.00
12178;BME280;6152;48.728;9.256;2023-11-18T10:48:07;97895.97;;;8.63;100.00
12178;BME280;6152;48.728;9.256;2023-11-18T10:50:34;97889.78;;;8.88;100.00
12178;BME280;6152;48.728;9.256;2023-11-18T10:53:01;97888.44;;;8.99;100.00
12178;BME280;6152;48.728;9.256;2023-11-18T10:55:38;97880.97;;;8.92;100.00
12178;BME280;6152;48.728;9.256;2023-11-18T10:58:06;97881.59;;;8.97;100.00
12178;BME280;6152;48.728;9.256;2023-11-18T11:00:52;97880.91;;;9.13;100.00
12178;BME280;6152;48.728;9.256;2023-11-18T11:03:22;97876.47;;;9.16;100.00
12178;BME280;6152;48.728;9.256;2023-11-18T11:05:51;97868.09;;;9.29;100.00
12178;BME280;6152;48.728;9.256;2023-11-18T11:08:20;97858.38;;;9.34;100.00
12178;BME280;6152;48.728;9.256;2023-11-18T11:10:47;97849.94;;;9.09;100.00
12178;BME280;6152;48.728;9.256;2023-11-18T11:13:17;97859.53;;;9.07;100.00
12178;BME280;6152;48.728;9.256;2023-11-18T11:15:44;97867.72;;;9.18;100.00
12178;BME280;6152;48.728;9.256;2023-11-18T11:18:12;97858.47;;;9.31;100.00
12178;BME280;6152;48.728;9.256;2023-11-18T11:24:05;97864.00;;;9.62;100.00
12178;BME280;6152;48.728;9.256;2023-11-18T11:26:48;97861.06;;;9.51;100.00
12178;BME280;6152;48.728;9.256;2023-11-18T11:29:30;97868.66;;;9.75;100.00
12178;BME280;6152;48.728;9.256;2023-11-18T11:34:39;97858.66;;;9.47;100.00
12178;BME280;6152;48.728;9.256;2023-11-18T11:37:08;97851.09;;;9.22;100.00
12178;BME280;6152;48.728;9.256;2023-11-18T11:39:37;97845.47;;;9.31;100.00
12178;BME280;6152;48.728;9.256;2023-11-18T11:42:04;97848.25;;;9.47;100.00
12178;BME280;6152;48.728;9.256;2023-11-18T11:44:35;97848.25;;;9.47;100.00
12178;BME280;6152;48.728;9.256;2023-11-18T11:47:08;97840.28;;;9.31;100.00
12178;BME280;6152;48.728;9.256;2023-11-18T11:49:50;97838.84;;;9.44;100.00
12178;BME280;6152;48.728;9.256;2023-11-18T11:52:28;97831.69;;;9.49;100.00
12178;BME280;6152;48.728;9.256;2023-11-18T11:57:28;97820.53;;;9.47;100.00
12178;BME280;6152;48.728;9.256;2023-11-18T11:59:56;97817.22;;;9.44;100.00
12178;BME280;6152;48.728;9.256;2023-11-18T12:02:26;97813.69;;;9.45;100.00
12178;BME280;6152;48.728;9.256;2023-11-18T12:04:58;97808.88;;;9.37;100.00
12178;BME280;6152;48.728;9.256;2023-11-18T12:07:27;97810.41;;;9.41;100.00
12178;BME280;6152;48.728;9.256;2023-11-18T12:10:00;97809.91;;;9.33;100.00
12178;BME280;6152;48.728;9.256;2023-11-18T12:12:27;97810.28;;;9.24;100.00
12178;BME280;6152;48.728;9.256;2023-11-18T12:14:58;97812.69;;;9.10;100.00
12178;BME280;6152;48.728;9.256;2023-11-18T12:20:38;97788.16;;;8.77;100.00
12178;BME280;6152;48.728;9.256;2023-11-18T12:23:08;97787.97;;;8.61;100.00
12178;BME280;6152;48.728;9.256;2023-11-18T12:25:44;97764.22;;;8.50;100.00
12178;BME280;6152;48.728;9.256;2023-11-18T12:28:32;97761.44;;;8.34;100.00
12178;BME280;6152;48.728;9.256;2023-11-18T12:31:02;97752.19;;;8.27;100.00
12178;BME280;6152;48.728;9.256;2023-11-18T12:39:26;97758.13;;;8.31;100.00
12178;BME280;6152;48.728;9.256;2023-11-18T12:42:31;97749.16;;;8.38;100.00
12178;BME280;6152;48.728;9.256;2023-11-18T12:47:49;97724.88;;;8.40;100.00
12178;BME280;6152;48.728;9.256;2023-11-18T12:50:19;97734.22;;;8.44;100.00
12178;BME280;6152;48.728;9.256;2023-11-18T12:52:53;97729.25;;;8.38;100.00
12178;BME280;6152;48.728;9.256;2023-11-18T12:55:20;97725.91;;;8.36;100.00
12178;BME280;6152;48.728;9.256;2023-11-18T12:57:49;97733.00;;;8.31;100.00
12178;BME280;6152;48.728;9.256;2023-11-18T13:00:20;97712.09;;;8.14;100.00
12178;BME280;6152;48.728;9.256;2023-11-18T13:02:56;97724.28;;;8.12;100.00
12178;BME280;6152;48.728;9.256;2023-11-18T13:05:24;97713.91;;;8.12;100.00
12178;BME280;6152;48.728;9.256;2023-11-18T13:07:56;97708.78;;;8.10;100.00
12178;BME280;6152;48.728;9.256;2023-11-18T13:10:24;97719.22;;;8.09;100.00
12178;BME280;6152;48.728;9.256;2023-11-18T13:12:53;97710.66;;;8.07;100.00
12178;BME280;6152;48.728;9.256;2023-11-18T13:15:19;97726.22;;;8.07;100.00
12178;BME280;6152;48.728;9.256;2023-11-18T13:18:02;97728.53;;;7.93;100.00
12178;BME280;6152;48.728;9.256;2023-11-18T13:20:32;97723.78;;;7.82;100.00
12178;BME280;6152;48.728;9.256;2023-11-18T13:23:02;97721.50;;;7.75;100.00
12178;BME280;6152;48.728;9.256;2023-11-18T13:25:35;97710.47;;;7.70;100.00
12178;BME280;6152;48.728;9.256;2023-11-18T13:28:03;97706.28;;;7.66;100.00
12178;BME280;6152;48.728;9.256;2023-11-18T13:30:31;97701.13;;;7.66;100.00
12178;BME280;6152;48.728;9.256;2023-11-18T13:32:57;97706.19;;;7.69;100.00
12178;BME280;6152;48.728;9.256;2023-11-18T13:35:23;97700.09;;;7.70;100.00
12178;BME280;6152;48.728;9.256;2023-11-18T13:37:50;97704.50;;;7.68;100.00
12178;BME280;6152;48.728;9.256;2023-11-18T13:40:16;97701.13;;;7.66;100.00
12178;BME280;6152;48.728;9.256;2023-11-18T13:42:44;97691.59;;;7.66;100.00
12178;BME280;6152;48.728;9.256;2023-11-18T13:45:13;97687.56;;;7.59;100.00
12178;BME280;6152;48.728;9.256;2023-11-18T13:47:51;97681.00;;;7.50;100.00
12178;BME280;6152;48.728;9.256;2023-11-18T13:50:20;97671.38;;;7.54;100.00